createdAt,value
2023-04-15T00:00:21.618Z,2088.00
2023-04-15T00:01:21.585Z,2082.00
2023-04-15T00:02:21.588Z,2085.00
2023-04-15T00:03:21.666Z,2078.00
2023-04-15T00:04:21.557Z,2083.00
2023-04-15T00:05:21.432Z,2079.00
2023-04-15T00:06:21.387Z,2077.00
2023-04-15T00:07:21.354Z,2075.00
2023-04-15T00:08:21.315Z,2071.00
2023-04-15T00:09:21.271Z,2068.00
2023-04-15T00:10:21.242Z,2064.00
2023-04-15T00:11:21.206Z,2070.00
2023-04-15T00:12:21.182Z,2066.00
2023-04-15T00:13:21.214Z,2066.00
2023-04-15T00:14:21.111Z,2058.00
2023-04-15T00:15:21.073Z,2052.00
2023-04-15T00:16:21.044Z,2042.00
2023-04-15T00:17:20.993Z,2042.00
2023-04-15T00:18:20.962Z,2052.00
2023-04-15T00:19:20.897Z,2056.00
2023-04-15T00:20:20.841Z,2052.00
2023-04-15T00:21:20.808Z,2050.00
2023-04-15T00:22:20.778Z,2051.00
2023-04-15T00:23:20.735Z,2048.00
2023-04-15T00:24:20.690Z,2041.00
2023-04-15T00:25:20.659Z,2041.00
2023-04-15T00:26:20.656Z,2045.00
2023-04-15T00:27:20.627Z,2036.00
2023-04-15T00:28:20.593Z,2028.00
2023-04-15T00:29:20.572Z,2032.00
2023-04-15T00:30:20.565Z,2033.00
2023-04-15T00:31:20.586Z,2030.00
2023-04-15T00:32:20.613Z,2019.00
2023-04-15T00:33:20.555Z,2031.00
2023-04-15T00:34:20.530Z,2026.00
2023-04-15T00:35:20.516Z,2025.00
2023-04-15T00:36:20.487Z,2024.00
2023-04-15T00:37:20.457Z,2025.00
2023-04-15T00:38:20.521Z,2020.00
2023-04-15T00:39:20.493Z,2012.00
2023-04-15T00:40:20.476Z,2011.00
2023-04-15T00:41:20.450Z,2005.00
2023-04-15T00:42:20.431Z,2003.00
2023-04-15T00:43:20.403Z,2001.00
2023-04-15T00:44:20.461Z,2002.00
2023-04-15T00:45:20.568Z,2002.00
2023-04-15T00:46:20.463Z,1998.00
2023-04-15T00:47:20.371Z,2003.00
2023-04-15T00:48:20.339Z,2000.00
2023-04-15T00:49:20.333Z,2005.00
2023-04-15T00:50:20.293Z,2000.00
2023-04-15T00:51:20.256Z,1995.00
2023-04-15T00:52:20.248Z,1991.00
2023-04-15T00:53:20.311Z,1988.00
2023-04-15T00:54:20.410Z,1978.00
2023-04-15T00:55:20.255Z,1976.00
2023-04-15T00:56:20.231Z,1977.00
2023-04-15T00:57:20.197Z,1977.00
2023-04-15T00:58:20.217Z,1973.00
2023-04-15T00:59:20.174Z,1967.00
2023-04-15T01:00:20.174Z,1961.00
2023-04-15T01:01:20.195Z,1956.00
2023-04-15T01:02:20.163Z,1949.00
2023-04-15T01:03:20.242Z,1949.00
2023-04-15T01:04:20.153Z,1952.00
2023-04-15T01:05:20.060Z,1947.00
2023-04-15T01:06:20.038Z,1950.00
2023-04-15T01:07:20.005Z,1948.00
2023-04-15T01:08:19.985Z,1951.00
2023-04-15T01:09:19.973Z,1955.00
2023-04-15T01:10:19.955Z,1955.00
2023-04-15T01:11:19.921Z,1950.00
2023-04-15T01:12:19.899Z,1948.00
2023-04-15T01:13:19.879Z,1952.00
2023-04-15T01:14:19.866Z,1950.00
2023-04-15T01:15:19.851Z,1950.00
2023-04-15T01:16:19.870Z,1945.00
2023-04-15T01:17:19.866Z,1940.00
2023-04-15T01:18:19.816Z,1939.00
2023-04-15T01:19:19.800Z,1941.00
2023-04-15T01:20:19.768Z,1934.00
2023-04-15T01:21:19.825Z,1926.00
2023-04-15T01:22:19.862Z,1917.00
2023-04-15T01:23:19.845Z,1915.00
2023-04-15T01:24:19.818Z,1911.00
2023-04-15T01:25:19.792Z,1912.00
2023-04-15T01:26:19.774Z,1915.00
2023-04-15T01:27:19.821Z,1916.00
2023-04-15T01:28:19.798Z,1905.00
2023-04-15T01:29:19.766Z,1905.00
2023-04-15T01:30:19.757Z,1908.00
2023-04-15T01:31:19.763Z,1910.00
2023-04-15T01:32:19.800Z,1902.00
2023-04-15T01:33:19.711Z,1898.00
2023-04-15T01:34:19.682Z,1897.00
2023-04-15T01:35:19.657Z,1905.00
2023-04-15T01:36:19.639Z,1908.00
2023-04-15T01:37:19.630Z,1908.00
2023-04-15T01:38:19.657Z,1909.00
2023-04-15T01:39:19.636Z,1900.00
2023-04-15T01:40:19.628Z,1898.00
2023-04-15T01:41:19.596Z,1897.00
2023-04-15T01:42:19.574Z,1893.00
2023-04-15T01:43:19.602Z,1889.00
2023-04-15T01:44:19.581Z,1891.00
2023-04-15T01:45:19.560Z,1889.00
2023-04-15T01:46:19.567Z,1893.00
2023-04-15T01:47:19.539Z,1896.00
2023-04-15T01:48:19.567Z,1894.00
2023-04-15T01:49:19.650Z,1893.00
2023-04-15T01:50:19.618Z,1894.00
2023-04-15T01:51:19.611Z,1886.00
2023-04-15T01:52:19.561Z,1886.00
2023-04-15T01:53:19.528Z,1881.00
2023-04-15T01:54:19.520Z,1874.00
2023-04-15T01:55:19.570Z,1870.00
2023-04-15T01:56:19.543Z,1868.00
2023-04-15T01:57:19.512Z,1869.00
2023-04-15T01:58:19.491Z,1868.00
2023-04-15T01:59:19.465Z,1871.00
2023-04-15T02:00:19.444Z,1865.00
2023-04-15T02:01:19.437Z,1867.00
2023-04-15T02:02:19.518Z,1865.00
2023-04-15T02:03:19.487Z,1862.00
2023-04-15T02:04:19.367Z,1856.00
2023-04-15T02:05:19.365Z,1858.00
2023-04-15T02:06:19.335Z,1863.00
2023-04-15T02:07:19.346Z,1860.00
2023-04-15T02:08:19.285Z,1861.00
2023-04-15T02:09:19.270Z,1858.00
2023-04-15T02:10:19.237Z,1851.00
2023-04-15T02:11:19.285Z,1851.00
2023-04-15T02:12:19.267Z,1853.00
2023-04-15T02:13:19.236Z,1851.00
2023-04-15T02:14:19.235Z,1847.00
2023-04-15T02:15:19.193Z,1846.00
2023-04-15T02:16:19.286Z,1841.00
2023-04-15T02:17:19.179Z,1840.00
2023-04-15T02:18:19.138Z,1839.00
2023-04-15T02:19:19.138Z,1840.00
2023-04-15T02:20:19.109Z,1837.00
2023-04-15T02:21:19.072Z,1838.00
2023-04-15T02:22:19.108Z,1832.00
2023-04-15T02:23:19.032Z,1832.00
2023-04-15T02:24:19.010Z,1830.00
2023-04-15T02:25:19.020Z,1822.00
2023-04-15T02:26:18.969Z,1816.00
2023-04-15T02:27:18.983Z,1816.00
2023-04-15T02:28:18.949Z,1811.00
2023-04-15T02:29:19.011Z,1809.00
2023-04-15T02:30:18.901Z,1807.00
2023-04-15T02:31:18.887Z,1804.00
2023-04-15T02:32:18.963Z,1804.00
2023-04-15T02:33:18.908Z,1805.00
2023-04-15T02:34:18.883Z,1805.00
2023-04-15T02:35:18.855Z,1803.00
2023-04-15T02:36:18.837Z,1797.00
2023-04-15T02:37:18.817Z,1795.00
2023-04-15T02:38:18.876Z,1797.00
2023-04-15T02:39:18.948Z,1802.00
2023-04-15T02:40:19.008Z,1803.00
2023-04-15T02:41:18.988Z,1798.00
2023-04-15T02:42:18.952Z,1795.00
2023-04-15T02:43:18.921Z,1787.00
2023-04-15T02:44:18.892Z,1795.00
2023-04-15T02:45:18.872Z,1786.00
2023-04-15T02:46:18.935Z,1783.00
2023-04-15T02:47:18.996Z,1782.00
2023-04-15T02:48:19.039Z,1782.00
2023-04-15T02:49:19.010Z,1786.00
2023-04-15T02:50:18.998Z,1788.00
2023-04-15T02:51:18.971Z,1788.00
2023-04-15T02:52:18.937Z,1787.00
2023-04-15T02:53:19.008Z,1780.00
2023-04-15T02:54:19.077Z,1777.00
2023-04-15T02:55:19.167Z,1776.00
2023-04-15T02:56:19.143Z,1776.00
2023-04-15T02:57:19.112Z,1777.00
2023-04-15T02:58:19.098Z,1773.00
2023-04-15T02:59:19.065Z,1771.00
2023-04-15T03:00:19.041Z,1769.00
2023-04-15T03:01:19.188Z,1772.00
2023-04-15T03:02:19.094Z,1772.00
2023-04-15T03:03:19.081Z,1763.00
2023-04-15T03:04:19.057Z,1759.00
2023-04-15T03:05:19.016Z,1759.00
2023-04-15T03:06:18.983Z,1756.00
2023-04-15T03:07:18.951Z,1755.00
2023-04-15T03:08:18.925Z,1755.00
2023-04-15T03:09:18.888Z,1750.00
2023-04-15T03:10:18.922Z,1746.00
2023-04-15T03:11:18.897Z,1755.00
2023-04-15T03:12:18.867Z,1756.00
2023-04-15T03:13:18.852Z,1754.00
2023-04-15T03:14:18.815Z,1754.00
2023-04-15T03:15:18.874Z,1756.00
2023-04-15T03:16:18.885Z,1755.00
2023-04-15T03:17:18.892Z,1753.00
2023-04-15T03:18:18.810Z,1744.00
2023-04-15T03:19:18.783Z,1745.00
2023-04-15T03:20:18.777Z,1743.00
2023-04-15T03:21:18.719Z,1745.00
2023-04-15T03:22:18.698Z,1740.00
2023-04-15T03:23:18.683Z,1740.00
2023-04-15T03:24:18.659Z,1743.00
2023-04-15T03:25:18.624Z,1744.00
2023-04-15T03:26:19.619Z,1746.00
2023-04-15T03:27:18.660Z,1736.00
2023-04-15T03:28:18.637Z,1741.00
2023-04-15T03:29:18.614Z,1737.00
2023-04-15T03:30:18.595Z,1735.00
2023-04-15T03:31:18.617Z,1730.00
2023-04-15T03:32:18.585Z,1731.00
2023-04-15T03:33:19.559Z,1731.00
2023-04-15T03:34:18.516Z,1733.00
2023-04-15T03:35:18.493Z,1729.00
2023-04-15T03:36:18.444Z,1724.00
2023-04-15T03:37:18.412Z,1726.00
2023-04-15T03:38:18.370Z,1726.00
2023-04-15T03:39:18.341Z,1725.00
2023-04-15T03:40:18.312Z,1726.00
2023-04-15T03:41:18.264Z,1723.00
2023-04-15T03:42:18.227Z,1721.00
2023-04-15T03:43:18.182Z,1718.00
2023-04-15T03:44:18.140Z,1723.00
2023-04-15T03:45:18.114Z,1724.00
2023-04-15T03:46:18.099Z,1716.00
2023-04-15T03:47:18.055Z,1715.00
2023-04-15T03:48:18.428Z,1714.00
2023-04-15T03:49:17.992Z,1704.00
2023-04-15T03:50:17.951Z,1699.00
2023-04-15T03:51:17.929Z,1695.00
2023-04-15T03:52:17.908Z,1697.00
2023-04-15T03:53:17.891Z,1700.00
2023-04-15T03:54:17.876Z,1698.00
2023-04-15T03:55:17.855Z,1696.00
2023-04-15T03:56:17.827Z,1690.00
2023-04-15T03:57:17.797Z,1691.00
2023-04-15T03:58:17.789Z,1686.00
2023-04-15T03:59:17.854Z,1688.00
2023-04-15T04:00:17.933Z,1685.00
2023-04-15T04:01:17.907Z,1681.00
2023-04-15T04:02:17.989Z,1677.00
2023-04-15T04:03:18.026Z,1678.00
2023-04-15T04:04:17.930Z,1680.00
2023-04-15T04:05:17.887Z,1681.00
2023-04-15T04:06:17.950Z,1675.00
2023-04-15T04:07:17.988Z,1676.00
2023-04-15T04:08:17.944Z,1671.00
2023-04-15T04:09:17.915Z,1670.00
2023-04-15T04:10:17.898Z,1673.00
2023-04-15T04:11:17.941Z,1675.00
2023-04-15T04:12:17.998Z,1674.00
2023-04-15T04:13:17.972Z,1672.00
2023-04-15T04:14:17.949Z,1672.00
2023-04-15T04:15:17.936Z,1671.00
2023-04-15T04:16:17.970Z,1670.00
2023-04-15T04:17:17.886Z,1669.00
2023-04-15T04:18:17.926Z,1665.00
2023-04-15T04:19:17.990Z,1665.00
2023-04-15T04:20:18.062Z,1663.00
2023-04-15T04:21:18.130Z,1657.00
2023-04-15T04:22:18.253Z,1661.00
2023-04-15T04:23:18.240Z,1659.00
2023-04-15T04:24:18.209Z,1656.00
2023-04-15T04:25:18.214Z,1646.00
2023-04-15T04:26:18.156Z,1644.00
2023-04-15T04:27:18.122Z,1639.00
2023-04-15T04:28:18.177Z,1641.00
2023-04-15T04:29:18.242Z,1643.00
2023-04-15T04:30:18.320Z,1645.00
2023-04-15T04:31:18.281Z,1646.00
2023-04-15T04:32:18.259Z,1643.00
2023-04-15T04:33:18.224Z,1640.00
2023-04-15T04:34:18.205Z,1633.00
2023-04-15T04:35:18.206Z,1628.00
2023-04-15T04:36:18.205Z,1628.00
2023-04-15T04:37:18.198Z,1633.00
2023-04-15T04:38:18.159Z,1635.00
2023-04-15T04:39:18.119Z,1636.00
2023-04-15T04:40:18.118Z,1634.00
2023-04-15T04:41:18.048Z,1635.00
2023-04-15T04:42:18.095Z,1631.00
2023-04-15T04:43:18.162Z,1636.00
2023-04-15T04:44:18.126Z,1630.00
2023-04-15T04:45:18.119Z,1627.00
2023-04-15T04:46:18.162Z,1626.00
2023-04-15T04:47:18.045Z,1632.00
2023-04-15T04:48:18.018Z,1630.00
2023-04-15T04:49:18.052Z,1630.00
2023-04-15T04:50:18.144Z,1625.00
2023-04-15T04:51:18.199Z,1626.00
2023-04-15T04:52:18.162Z,1627.00
2023-04-15T04:53:18.127Z,1621.00
2023-04-15T04:54:18.107Z,1621.00
2023-04-15T04:55:18.055Z,1621.00
2023-04-15T04:56:18.017Z,1619.00
2023-04-15T04:57:18.064Z,1613.00
2023-04-15T04:58:18.157Z,1620.00
2023-04-15T04:59:19.415Z,1622.00
2023-04-15T05:00:18.151Z,1623.00
2023-04-15T05:01:18.271Z,1620.00
2023-04-15T05:02:18.284Z,1614.00
2023-04-15T05:03:18.323Z,1612.00
2023-04-15T05:04:18.226Z,1608.00
2023-04-15T05:05:18.082Z,1609.00
2023-04-15T05:06:18.111Z,1608.00
2023-04-15T05:07:18.175Z,1598.00
2023-04-15T05:08:18.159Z,1602.00
2023-04-15T05:09:18.122Z,1598.00
2023-04-15T05:10:18.102Z,1600.00
2023-04-15T05:11:18.061Z,1597.00
2023-04-15T05:12:18.029Z,1594.00
2023-04-15T05:13:18.080Z,1598.00
2023-04-15T05:14:18.044Z,1598.00
2023-04-15T05:15:18.028Z,1595.00
2023-04-15T05:16:18.053Z,1594.00
2023-04-15T05:17:17.963Z,1583.00
2023-04-15T05:18:17.935Z,1585.00
2023-04-15T05:19:17.959Z,1586.00
2023-04-15T05:20:17.934Z,1587.00
2023-04-15T05:21:17.919Z,1584.00
2023-04-15T05:22:17.890Z,1583.00
2023-04-15T05:23:17.845Z,1582.00
2023-04-15T05:24:17.810Z,1583.00
2023-04-15T05:25:17.838Z,1581.00
2023-04-15T05:26:17.902Z,1578.00
2023-04-15T05:27:17.872Z,1578.00
2023-04-15T05:28:17.833Z,1581.00
2023-04-15T05:29:17.793Z,1584.00
2023-04-15T05:30:17.764Z,1585.00
2023-04-15T05:31:17.771Z,1581.00
2023-04-15T05:32:17.764Z,1578.00
2023-04-15T05:33:17.735Z,1582.00
2023-04-15T05:34:17.716Z,1576.00
2023-04-15T05:35:17.712Z,1571.00
2023-04-15T05:36:17.671Z,1572.00
2023-04-15T05:37:17.628Z,1573.00
2023-04-15T05:38:17.630Z,1573.00
2023-04-15T05:39:17.684Z,1569.00
2023-04-15T05:40:17.634Z,1570.00
2023-04-15T05:41:19.726Z,1570.00
2023-04-15T05:42:17.629Z,1567.00
2023-04-15T05:43:17.682Z,1565.00
2023-04-15T05:44:17.665Z,1560.00
2023-04-15T05:45:17.664Z,1560.00
2023-04-15T05:46:17.702Z,1559.00
2023-04-15T05:47:17.611Z,1562.00
2023-04-15T05:48:17.578Z,1551.00
2023-04-15T05:49:17.553Z,1556.00
2023-04-15T05:50:17.516Z,1556.00
2023-04-15T05:51:17.486Z,1557.00
2023-04-15T05:52:17.456Z,1551.00
2023-04-15T05:53:17.412Z,1550.00
2023-04-15T05:54:19.287Z,1543.00
2023-04-15T05:55:17.598Z,1542.00
2023-04-15T05:56:17.568Z,1543.00
2023-04-15T05:57:17.516Z,1544.00
2023-04-15T05:58:17.474Z,1543.00
2023-04-15T05:59:17.426Z,1547.00
2023-04-15T06:00:17.442Z,1549.00
2023-04-15T06:01:17.511Z,1545.00
2023-04-15T06:02:17.685Z,1547.00
2023-04-15T06:03:17.692Z,1544.00
2023-04-15T06:04:17.755Z,1543.00
2023-04-15T06:05:17.706Z,1543.00
2023-04-15T06:06:17.758Z,1541.00
2023-04-15T06:07:17.767Z,1542.00
2023-04-15T06:08:17.731Z,1540.00
2023-04-15T06:09:17.725Z,1541.00
2023-04-15T06:10:17.729Z,1542.00
2023-04-15T06:11:17.721Z,1538.00
2023-04-15T06:12:17.714Z,1540.00
2023-04-15T06:13:17.678Z,1539.00
2023-04-15T06:14:17.735Z,1540.00
2023-04-15T06:15:17.788Z,1539.00
2023-04-15T06:16:17.884Z,1540.00
2023-04-15T06:17:17.879Z,1537.00
2023-04-15T06:18:17.874Z,1534.00
2023-04-15T06:19:17.851Z,1535.00
2023-04-15T06:20:17.825Z,1532.00
2023-04-15T06:21:17.810Z,1529.00
2023-04-15T06:22:17.795Z,1528.00
2023-04-15T06:23:17.802Z,1530.00
2023-04-15T06:24:17.793Z,1532.00
2023-04-15T06:25:17.835Z,1528.00
2023-04-15T06:26:17.881Z,1528.00
2023-04-15T06:27:17.877Z,1528.00
2023-04-15T06:28:17.882Z,1528.00
2023-04-15T06:29:17.901Z,1520.00
2023-04-15T06:30:17.868Z,1517.00
2023-04-15T06:31:17.859Z,1521.00
2023-04-15T06:32:17.812Z,1522.00
2023-04-15T06:33:17.825Z,1521.00
2023-04-15T06:34:17.799Z,1521.00
2023-04-15T06:35:17.841Z,1526.00
2023-04-15T06:36:17.887Z,1524.00
2023-04-15T06:37:17.922Z,1522.00
2023-04-15T06:38:17.919Z,1522.00
2023-04-15T06:39:17.920Z,1521.00
2023-04-15T06:40:17.893Z,1519.00
2023-04-15T06:41:17.874Z,1517.00
2023-04-15T06:42:17.868Z,1522.00
2023-04-15T06:43:17.874Z,1519.00
2023-04-15T06:44:17.873Z,1514.00
2023-04-15T06:45:17.892Z,1514.00
2023-04-15T06:46:18.043Z,1512.00
2023-04-15T06:47:17.948Z,1510.00
2023-04-15T06:48:17.949Z,1510.00
2023-04-15T06:49:17.950Z,1510.00
2023-04-15T06:50:17.987Z,1510.00
2023-04-15T06:51:18.018Z,1511.00
2023-04-15T06:52:18.046Z,1508.00
2023-04-15T06:53:18.054Z,1506.00
2023-04-15T06:54:18.050Z,1513.00
2023-04-15T06:55:18.085Z,1512.00
2023-04-15T06:56:18.091Z,1504.00
2023-04-15T06:57:18.103Z,1502.00
2023-04-15T06:58:18.129Z,1503.00
2023-04-15T06:59:18.154Z,1503.00
2023-04-15T07:00:18.167Z,1502.00
2023-04-15T07:01:18.194Z,1502.00
2023-04-15T07:02:18.456Z,1502.00
2023-04-15T07:03:18.296Z,1499.00
2023-04-15T07:04:18.323Z,1502.00
2023-04-15T07:05:18.297Z,1505.00
2023-04-15T07:06:18.322Z,1508.00
2023-04-15T07:07:18.348Z,1510.00
2023-04-15T07:08:18.382Z,1513.00
2023-04-15T07:09:18.397Z,1512.00
2023-04-15T07:10:18.435Z,1509.00
2023-04-15T07:11:18.447Z,1506.00
2023-04-15T07:12:18.478Z,1503.00
2023-04-15T07:13:18.523Z,1498.00
2023-04-15T07:14:18.532Z,1496.00
2023-04-15T07:15:18.547Z,1498.00
2023-04-15T07:16:18.609Z,1498.00
2023-04-15T07:17:18.624Z,1494.00
2023-04-15T07:18:18.602Z,1491.00
2023-04-15T07:19:18.625Z,1491.00
2023-04-15T07:20:18.646Z,1492.00
2023-04-15T07:21:18.661Z,1493.00
2023-04-15T07:22:18.677Z,1495.00
2023-04-15T07:23:18.700Z,1494.00
2023-04-15T07:24:18.715Z,1489.00
2023-04-15T07:25:18.726Z,1485.00
2023-04-15T07:26:18.746Z,1477.00
2023-04-15T07:27:18.777Z,1470.00
2023-04-15T07:28:18.784Z,1474.00
2023-04-15T07:29:18.789Z,1472.00
2023-04-15T07:30:18.825Z,1475.00
2023-04-15T07:31:18.850Z,1472.00
2023-04-15T07:32:18.980Z,1474.00
2023-04-15T07:33:18.868Z,1475.00
2023-04-15T07:34:18.905Z,1476.00
2023-04-15T07:35:18.898Z,1471.00
2023-04-15T07:36:18.926Z,1472.00
2023-04-15T07:37:18.969Z,1469.00
2023-04-15T07:38:18.952Z,1471.00
2023-04-15T07:39:18.973Z,1464.00
2023-04-15T07:40:18.986Z,1467.00
2023-04-15T07:41:19.026Z,1462.00
2023-04-15T07:42:19.037Z,1466.00
2023-04-15T07:43:19.054Z,1463.00
2023-04-15T07:44:19.076Z,1466.00
2023-04-15T07:45:19.130Z,1463.00
2023-04-15T07:46:19.129Z,1460.00
2023-04-15T07:47:19.171Z,1460.00
2023-04-15T07:48:19.168Z,1462.00
2023-04-15T07:49:19.194Z,1458.00
2023-04-15T07:50:19.214Z,1454.00
2023-04-15T07:51:19.238Z,1447.00
2023-04-15T07:52:19.267Z,1447.00
2023-04-15T07:53:19.300Z,1449.00
2023-04-15T07:54:19.329Z,1448.00
2023-04-15T07:55:19.363Z,1445.00
2023-04-15T07:56:19.385Z,1438.00
2023-04-15T07:57:19.404Z,1435.00
2023-04-15T07:58:19.424Z,1435.00
2023-04-15T07:59:19.452Z,1433.00
2023-04-15T08:00:19.490Z,1431.00
2023-04-15T08:01:19.513Z,1434.00
2023-04-15T08:02:19.632Z,1445.00
2023-04-15T08:03:19.633Z,1439.00
2023-04-15T08:04:19.788Z,1440.00
2023-04-15T08:05:19.672Z,1436.00
2023-04-15T08:06:19.635Z,1433.00
2023-04-15T08:07:19.639Z,1429.00
2023-04-15T08:08:19.675Z,1428.00
2023-04-15T08:09:20.201Z,1423.00
2023-04-15T08:10:19.713Z,1419.00
2023-04-15T08:11:19.725Z,1421.00
2023-04-15T08:12:19.748Z,1415.00
2023-04-15T08:13:19.767Z,1422.00
2023-04-15T08:14:19.785Z,1427.00
2023-04-15T08:15:19.820Z,1429.00
2023-04-15T08:16:19.903Z,1426.00
2023-04-15T08:17:19.907Z,1427.00
2023-04-15T08:18:19.872Z,1425.00
2023-04-15T08:19:19.875Z,1418.00
2023-04-15T08:20:19.912Z,1416.00
2023-04-15T08:21:19.915Z,1424.00
2023-04-15T08:22:21.216Z,1425.00
2023-04-15T08:23:19.977Z,1430.00
2023-04-15T08:24:19.984Z,1428.00
2023-04-15T08:25:20.024Z,1426.00
2023-04-15T08:26:19.962Z,1430.00
2023-04-15T08:27:19.920Z,1432.00
2023-04-15T08:28:19.886Z,1433.00
2023-04-15T08:29:19.892Z,1435.00
2023-04-15T08:30:19.815Z,1432.00
2023-04-15T08:31:19.833Z,1429.00
2023-04-15T08:32:19.782Z,1428.00
2023-04-15T08:33:19.711Z,1430.00
2023-04-15T08:34:19.667Z,1426.00
2023-04-15T08:35:19.660Z,1426.00
2023-04-15T08:36:19.676Z,1427.00
2023-04-15T08:37:19.692Z,1425.00
2023-04-15T08:38:19.732Z,1419.00
2023-04-15T08:39:19.723Z,1409.00
2023-04-15T08:40:19.775Z,1410.00
2023-04-15T08:41:19.764Z,1409.00
2023-04-15T08:42:19.779Z,1408.00
2023-04-15T08:43:19.798Z,1403.00
2023-04-15T08:44:19.808Z,1399.00
2023-04-15T08:45:19.824Z,1399.00
2023-04-15T08:46:19.888Z,1390.00
2023-04-15T08:47:19.884Z,1389.00
2023-04-15T08:48:19.876Z,1390.00
2023-04-15T08:49:19.890Z,1388.00
2023-04-15T08:50:19.896Z,1389.00
2023-04-15T08:51:19.919Z,1389.00
2023-04-15T08:52:19.901Z,1389.00
2023-04-15T08:53:19.915Z,1387.00
2023-04-15T08:54:19.931Z,1390.00
2023-04-15T08:55:19.937Z,1388.00
2023-04-15T08:56:19.948Z,1385.00
2023-04-15T08:57:19.951Z,1389.00
2023-04-15T08:58:19.948Z,1393.00
2023-04-15T08:59:19.949Z,1395.00
2023-04-15T09:00:19.954Z,1390.00
2023-04-15T09:01:19.994Z,1391.00
2023-04-15T09:02:20.086Z,1391.00
2023-04-15T09:03:20.007Z,1393.00
2023-04-15T09:04:20.137Z,1388.00
2023-04-15T09:05:19.968Z,1384.00
2023-04-15T09:06:19.969Z,1384.00
2023-04-15T09:07:19.980Z,1387.00
2023-04-15T09:08:20.047Z,1377.00
2023-04-15T09:09:19.996Z,1374.00
2023-04-15T09:10:19.987Z,1373.00
2023-04-15T09:11:20.299Z,1382.00
2023-04-15T09:12:20.009Z,1382.00
2023-04-15T09:13:19.998Z,1379.00
2023-04-15T09:14:20.014Z,1377.00
2023-04-15T09:15:20.019Z,1371.00
2023-04-15T09:16:20.077Z,1373.00
2023-04-15T09:17:20.077Z,1375.00
2023-04-15T09:18:20.038Z,1379.00
2023-04-15T09:19:20.042Z,1376.00
2023-04-15T09:20:20.061Z,1380.00
2023-04-15T09:21:20.059Z,1380.00
2023-04-15T09:22:20.071Z,1381.00
2023-04-15T09:23:20.088Z,1374.00
2023-04-15T09:24:20.087Z,1378.00
2023-04-15T09:25:20.089Z,1375.00
2023-04-15T09:26:20.091Z,1373.00
2023-04-15T09:27:20.094Z,1369.00
2023-04-15T09:28:20.115Z,1367.00
2023-04-15T09:29:20.102Z,1357.00
2023-04-15T09:30:20.127Z,1353.00
2023-04-15T09:31:20.172Z,1352.00
2023-04-15T09:32:20.133Z,1352.00
2023-04-15T09:33:20.144Z,1357.00
2023-04-15T09:34:20.150Z,1360.00
2023-04-15T09:35:20.174Z,1359.00
2023-04-15T09:36:20.178Z,1357.00
2023-04-15T09:37:31.749Z,1349.00
2023-04-15T09:38:21.148Z,1350.00
2023-04-15T09:39:20.101Z,1353.00
2023-04-15T09:40:20.076Z,1361.00
2023-04-15T09:41:20.023Z,1355.00
2023-04-15T09:42:19.999Z,1354.00
2023-04-15T09:43:19.952Z,1357.00
2023-04-15T09:44:19.897Z,1349.00
2023-04-15T09:45:19.880Z,1348.00
2023-04-15T09:46:19.894Z,1344.00
2023-04-15T09:47:19.850Z,1344.00
2023-04-15T09:48:19.747Z,1342.00
2023-04-15T09:49:19.753Z,1342.00
2023-04-15T09:50:19.741Z,1341.00
2023-04-15T09:51:19.737Z,1349.00
2023-04-15T09:52:19.741Z,1349.00
2023-04-15T09:53:19.739Z,1354.00
2023-04-15T09:54:19.734Z,1348.00
2023-04-15T09:55:19.741Z,1347.00
2023-04-15T09:56:19.741Z,1346.00
2023-04-15T09:57:19.753Z,1346.00
2023-04-15T09:58:19.765Z,1348.00
2023-04-15T09:59:20.197Z,1348.00
2023-04-15T10:00:19.784Z,1348.00
2023-04-15T10:01:19.836Z,1345.00
2023-04-15T10:02:19.920Z,1350.00
2023-04-15T10:03:19.910Z,1347.00
2023-04-15T10:04:19.854Z,1341.00
2023-04-15T10:05:19.787Z,1343.00
2023-04-15T10:06:19.799Z,1346.00
2023-04-15T10:07:19.808Z,1344.00
2023-04-15T10:08:19.825Z,1342.00
2023-04-15T10:09:19.817Z,1344.00
2023-04-15T10:10:19.847Z,1341.00
2023-04-15T10:11:19.827Z,1338.00
2023-04-15T10:12:19.835Z,1334.00
2023-04-15T10:13:19.844Z,1331.00
2023-04-15T10:14:19.842Z,1339.00
2023-04-15T10:15:19.850Z,1336.00
2023-04-15T10:16:19.929Z,1337.00
2023-04-15T10:17:19.846Z,1332.00
2023-04-15T10:18:19.849Z,1333.00
2023-04-15T10:19:19.856Z,1341.00
2023-04-15T10:20:19.859Z,1336.00
2023-04-15T10:21:19.864Z,1334.00
2023-04-15T10:22:19.875Z,1331.00
2023-04-15T10:23:19.889Z,1327.00
2023-04-15T10:24:19.895Z,1329.00
2023-04-15T10:25:19.885Z,1328.00
2023-04-15T10:26:19.896Z,1331.00
2023-04-15T10:27:19.898Z,1339.00
2023-04-15T10:28:19.903Z,1328.00
2023-04-15T10:29:19.915Z,1327.00
2023-04-15T10:30:20.743Z,1323.00
2023-04-15T10:31:19.972Z,1324.00
2023-04-15T10:32:19.976Z,1327.00
2023-04-15T10:33:19.939Z,1317.00
2023-04-15T10:34:20.001Z,1315.00
2023-04-15T10:35:19.939Z,1314.00
2023-04-15T10:36:19.946Z,1313.00
2023-04-15T10:37:19.946Z,1315.00
2023-04-15T10:38:19.954Z,1315.00
2023-04-15T10:39:19.955Z,1317.00
2023-04-15T10:40:19.955Z,1321.00
2023-04-15T10:41:20.749Z,1314.00
2023-04-15T10:42:19.954Z,1315.00
2023-04-15T10:43:19.961Z,1314.00
2023-04-15T10:44:19.978Z,1320.00
2023-04-15T10:45:19.973Z,1321.00
2023-04-15T10:46:20.029Z,1324.00
2023-04-15T10:47:19.996Z,1325.00
2023-04-15T10:48:19.992Z,1319.00
2023-04-15T10:49:19.995Z,1314.00
2023-04-15T10:50:20.017Z,1314.00
2023-04-15T10:51:20.036Z,1314.00
2023-04-15T10:52:20.023Z,1317.00
2023-04-15T10:53:21.802Z,1319.00
2023-04-15T10:54:20.029Z,1318.00
2023-04-15T10:55:20.035Z,1314.00
2023-04-15T10:56:20.035Z,1315.00
2023-04-15T10:57:20.044Z,1309.00
2023-04-15T10:58:20.039Z,1309.00
2023-04-15T10:59:21.415Z,1313.00
2023-04-15T11:00:20.057Z,1307.00
2023-04-15T11:01:20.053Z,1307.00
2023-04-15T11:02:20.102Z,1304.00
2023-04-15T11:03:20.144Z,1306.00
2023-04-15T11:04:20.095Z,1303.00
2023-04-15T11:05:20.048Z,1301.00
2023-04-15T11:06:20.043Z,1298.00
2023-04-15T11:07:20.046Z,1298.00
2023-04-15T11:08:20.055Z,1292.00
2023-04-15T11:09:20.056Z,1293.00
2023-04-15T11:10:20.059Z,1289.00
2023-04-15T11:11:20.066Z,1290.00
2023-04-15T11:12:20.070Z,1290.00
2023-04-15T11:13:20.074Z,1289.00
2023-04-15T11:14:20.094Z,1291.00
2023-04-15T11:15:20.094Z,1290.00
2023-04-15T11:16:20.147Z,1289.00
2023-04-15T11:17:20.110Z,1290.00
2023-04-15T11:18:20.115Z,1287.00
2023-04-15T11:19:20.127Z,1285.00
2023-04-15T11:20:20.129Z,1286.00
2023-04-15T11:21:20.123Z,1287.00
2023-04-15T11:22:20.124Z,1288.00
2023-04-15T11:23:20.138Z,1283.00
2023-04-15T11:24:20.136Z,1278.00
2023-04-15T11:25:20.157Z,1280.00
2023-04-15T11:26:20.145Z,1284.00
2023-04-15T11:27:20.151Z,1288.00
2023-04-15T11:28:20.169Z,1286.00
2023-04-15T11:29:20.169Z,1288.00
2023-04-15T11:30:20.184Z,1286.00
2023-04-15T11:31:20.428Z,1285.00
2023-04-15T11:32:20.227Z,1289.00
2023-04-15T11:33:20.210Z,1285.00
2023-04-15T11:34:20.210Z,1284.00
2023-04-15T11:35:20.230Z,1283.00
2023-04-15T11:36:20.240Z,1282.00
2023-04-15T11:37:20.251Z,1280.00
2023-04-15T11:38:20.256Z,1283.00
2023-04-15T11:39:20.271Z,1280.00
2023-04-15T11:40:20.283Z,1282.00
2023-04-15T11:41:20.287Z,1278.00
2023-04-15T11:42:20.299Z,1280.00
2023-04-15T11:43:20.300Z,1281.00
2023-04-15T11:44:20.305Z,1278.00
2023-04-15T11:45:20.326Z,1278.00
2023-04-15T11:46:20.366Z,1278.00
2023-04-15T11:47:20.349Z,1278.00
2023-04-15T11:48:20.361Z,1280.00
2023-04-15T11:49:20.371Z,1281.00
2023-04-15T11:50:20.406Z,1278.00
2023-04-15T11:51:20.397Z,1276.00
2023-04-15T11:52:20.411Z,1276.00
2023-04-15T11:53:20.429Z,1282.00
2023-04-15T11:54:20.446Z,1280.00
2023-04-15T11:55:20.471Z,1274.00
2023-04-15T11:56:20.485Z,1270.00
2023-04-15T11:57:20.495Z,1271.00
2023-04-15T11:58:20.517Z,1272.00
2023-04-15T11:59:20.521Z,1273.00
2023-04-15T12:00:20.553Z,1274.00
2023-04-15T12:01:20.555Z,1278.00
2023-04-15T12:02:20.680Z,1278.00
2023-04-15T12:03:20.697Z,1275.00
2023-04-15T12:04:24.260Z,1270.00
2023-04-15T12:05:20.661Z,1266.00